Tiempo atmosférico en la estación meteorológica de Briviesca, Burgos (730 m.)



Fecha
DESCASC
Temp. máxima en grados centígrados (hora)
DESCASC
Temp. mínima en grados centígrados (hora)
DESCASC
Temp. media en grados centígrados
DESCASC
Racha de viento máxima en m/sg (hora)
DESCASC
Velocidad máxima media en intervalos de 10 minutos(hora)
DESCASC
Precipitaciones diarias en mm
DESCASC
Precipitaciones de 00:00 a 06:00 en mm
DESCASC
Precipitaciones de 06:00 a 12:00 en mm
DESCASC
Precipitaciones de 12:00 a 18:00 en mm
DESCASC
Precipitaciones de 18:00 a 24:00 en mm
DESCASC
20-05-2018 21.6 (17:10) 3.9 (06:20) 12.8 8.33 (17:30) 5 (19:30) 0 0 0 0 0
19-05-2018 20.3 (18:10) 5.4 (03:10) 12.8 8.33 (12:30) 5.28 (19:00) 0 0 0 0 0
18-05-2018 18.3 (16:30) 8 (00:00) 13.1 7.22 (15:10) 4.72 (12:50) 0 0 0 0 0
17-05-2018 19 (16:20) 2.5 (00:00) 10.8 8.33 (19:10) 6.39 (19:30) 1.6 0 1.6 0 0
16-05-2018 16.1 (16:40) 3.7 (00:00) 9.9 10 (17:30) 6.11 (17:20) 0 0 0 0 0
15-05-2018 15.9 (15:20) -0.2 (00:00) 7.8 9.17 (15:40) 5.56 (15:50) 0 0 0 0 0
14-05-2018 14.1 (15:40) 2.9 (00:00) 8.5 9.44 (19:00) 6.11 (18:10) 3.2 3 0.2 0 0
13-05-2018 12.7 (17:10) -1 (-00:0) 5.8 9.72 (17:20) 5.83 (17:20) 0.2 0 0.2 0 0
12-05-2018 13.4 (14:50) 1.3 (00:00) 7.3 9.17 (19:10) 6.94 (16:00) 0 0 0 0 0
11-05-2018 22.5 (16:40) 1 (06:40) 11.8 11.94 (16:40) 6.11 (15:50) 0 0 0 0 0
10-05-2018 14.7 (17:40) 5 (00:00) 9.8 8.06 (14:10) 5 (21:40) 0 0 0 0 0
09-05-2018 18.5 (17:00) 7.6 (00:00) 13 8.33 (18:50) 5.56 (18:50) 0 0 0 0 0
08-05-2018 18.5 (15:10) 9.1 (00:00) 13.8 8.33 (19:10) 5.56 (17:30) 0 0 0 0 0
07-05-2018 23.8 (17:10) 7.4 (00:00) 15.6 7.22 (20:20) 5 (18:00) 0 0 0 0 0
06-05-2018 22.1 (17:30) 4.3 (00:00) 13.2 7.22 (16:20) 3.89 (15:40) 0 0 0 0 0
05-05-2018 16.6 (15:50) 4.2 (00:00) 10.4 8.89 (13:30) 6.39 (13:30) 0 0 0 0 0
04-05-2018 11.3 (14:20) 4.3 (00:00) 7.8 9.72 (18:50) 6.11 (13:30) 0 0 0 0 0
03-05-2018 11.3 (15:00) 5.7 (00:00) 8.5 10.28 (15:10) 6.39 (15:10) 0.2 0.2 0 0 0
02-05-2018 13.4 (14:50) 4.7 (00:00) 9 9.44 (12:20) 6.11 (12:20) 0.6 0 0 0 0.6
01-05-2018 13.3 (18:10) 0.6 (07:20) 7 6.67 (16:20) 3.61 (21:10) 0 0 0 0 0
30-04-2018 9.8 (14:10) 2.4 (00:00) 6.1 12.22 (00:30) 7.78 (00:30) 0.2 0 0 0 0.2
29-04-2018 11.2 (16:10) 4.8 (00:00) 8 15.83 (17:40) 9.72 (15:00) 0.6 0 0 0.6 0
28-04-2018 13.5 (17:30) 5.7 (00:00) 9.6 6.67 (09:30) 3.89 (09:30) 9.2 9.2 0 0 0
27-04-2018 16.3 (14:40) 5.6 (00:00) 10.9 9.17 (17:30) 6.39 (16:50) 0 0 0 0 0
26-04-2018 15.5 (17:30) 7.7 (00:00) 11.6 7.78 (10:10) 5.28 (10:00) 0 0 0 0 0
25-04-2018 14 (14:20) 9.8 (00:00) 11.9 9.17 (17:50) 6.67 (17:40) 0 0 0 0 0
24-04-2018 21.9 (17:30) 8.9 (00:00) 15.4 7.78 (18:50) 5 (19:00) 0 0 0 0 0
23-04-2018 19.4 (18:00) 7.3 (00:00) 13.3 7.78 (18:50) 5.28 (18:50) 0 0 0 0 0
22-04-2018 21.1 (15:20) 6.8 (00:00) 14 8.89 (18:50) 5.28 (17:40) 4.8 0 0 0 4.8

Gráficas

Temp. máximas Temp. mínimas Temp. medias Precipitaciones Rachas de viento máximas Velocidades máximas media en intervalos de 10 minutos

Datos horarios

Fecha y hora oficial Temperatura (ºC) Velocidad del viento (km/h) Dirección del viento Racha (km/h) Dirección de racha Precipitación (mm) Presión (hPa) Tendencia (hPa) Humedad (%)
2018-05-21 23:00:00 -- -- -- -- -- -- -- -- --
2018-05-21 22:00:00 -- -- -- -- -- -- -- -- --
2018-05-21 21:00:00 15 5 Sur 18 Sudeste 0 -- -- 85
2018-05-21 20:00:00 13.6 10 Sur 21 Sudeste 1 -- -- 90
2018-05-21 19:00:00 16.8 4 Este 24 Este 0 -- -- 74
2018-05-21 18:00:00 19 15 Nordeste 24 Este 0 -- -- 61
2018-05-21 17:00:00 17.2 13 Nordeste 22 Nordeste 0 -- -- 74
2018-05-21 16:00:00 18 6 Sudeste 16 Este 2 -- -- 73
2018-05-21 15:00:00 18.5 11 Este 29 Este 0 -- -- 69
2018-05-21 14:00:00 19.9 14 Sudeste 22 Sur 0 -- -- 66
2018-05-21 13:00:00 18.4 6 Nordeste 14 Norte 0 -- -- 74
2018-05-21 12:00:00 19.3 2 Sudoeste 10 Este 0 -- -- 63
2018-05-21 11:00:00 16.8 3 Norte 10 Nordeste 0 -- -- 77
2018-05-21 10:00:00 14 2 Sudeste 9 Este 0 -- -- 85
2018-05-21 09:00:00 12.4 5 Sudeste 10 Sudeste 0 -- -- 93
2018-05-21 08:00:00 10.7 2 Noroeste 4 Noroeste 0 -- -- 94
2018-05-21 07:00:00 9.7 0 Calma 3 Sudoeste 0 -- -- 96
2018-05-21 06:00:00 9.7 0 Calma 4 Noroeste 0 -- -- 95
2018-05-21 05:00:00 10 0 Calma 3 Sur 0 -- -- 94
2018-05-21 04:00:00 11 0 Calma 6 Sudeste 0 -- -- 90
2018-05-21 03:00:00 11.7 4 Sudeste 8 Sudeste 0 -- -- 88
2018-05-21 02:00:00 11.6 4 Sudeste 8 Sudoeste 0 -- -- 89
2018-05-21 01:00:00 10.8 0 Calma 8 Este 0 -- -- 91
2018-05-21 00:00:00 12.2 0 Calma 20 Este 0 -- -- 84
2018-05-20 23:00:00 14 12 Este 21 Este 0 -- -- 73
2018-05-20 22:00:00 14.9 11 Sudeste 17 Sudeste 0 -- -- 71
2018-05-20 21:00:00 16.3 9 Nordeste 24 Nordeste 0 -- -- 68
2018-05-20 20:00:00 18.5 16 Nordeste 28 Nordeste 0 -- -- 59
2018-05-20 19:00:00 19.6 14 Nordeste 25 Este 0 -- -- 54
2018-05-20 18:00:00 21 12 Este 30 Nordeste 0 -- -- 47
2018-05-20 17:00:00 21.4 11 Este 21 Este 0 -- -- 42
2018-05-20 16:00:00 20.8 11 Este 26 Este 0 -- -- 41
2018-05-20 15:00:00 19.9 13 Nordeste 23 Nordeste 0 -- -- 44
2018-05-20 14:00:00 19 15 Nordeste 24 Nordeste 0 -- -- 43
2018-05-20 13:00:00 18.2 10 Nordeste 21 Nordeste 0 -- -- 45
2018-05-20 12:00:00 16.5 10 Nordeste 19 Nordeste 0 -- -- 53
2018-05-20 11:00:00 15 10 Este 18 Este 0 -- -- 52
2018-05-20 10:00:00 12.5 2 Sudoeste 8 Norte 0 -- -- 75
2018-05-20 09:00:00 9.5 3 Oeste 8 Sudoeste 0 -- -- 91
2018-05-20 08:00:00 6.3 3 Sur 10 Sur 0 -- -- 96
2018-05-20 07:00:00 3.9 4 Sudoeste 8 Sudoeste 0 -- -- 99
2018-05-20 06:00:00 4.1 2 Sudoeste 8 Sur 0 -- -- 96
2018-05-20 05:00:00 5.6 2 Sur 13 Sudeste 0 -- -- 97
2018-05-20 04:00:00 5.8 4 Sudoeste 10 Sudoeste 0 -- -- 96
2018-05-20 03:00:00 5.3 3 Sudoeste 6 Sudoeste 0 -- -- 97
2018-05-20 02:00:00 6.6 3 Sudoeste 9 Sudeste 0 -- -- 94
2018-05-20 01:00:00 7.5 2 Sur 10 Sudeste 0 -- -- 91
2018-05-20 00:00:00 8.9 4 Este 12 Este 0 -- -- 89
2018-05-19 23:00:00 10.3 4 Nordeste 19 Nordeste 0 -- -- 85
2018-05-19 22:00:00 12.3 15 Este 22 Este 0 -- -- 79
2018-05-19 21:00:00 15.3 15 Este 25 Este 0 -- -- 69
2018-05-19 20:00:00 17.8 17 Nordeste 28 Este 0 -- -- 58
2018-05-19 19:00:00 19 19 Este 28 Este 0 -- -- 58
2018-05-19 18:00:00 20.1 15 Nordeste 28 Nordeste 0 -- -- 55
2018-05-19 17:00:00 19.7 14 Nordeste 25 Nordeste 0 -- -- 58
2018-05-19 16:00:00 19.2 14 Nordeste 27 Nordeste 0 -- -- 61
2018-05-19 15:00:00 18.7 16 Nordeste 27 Nordeste 0 -- -- 59
2018-05-19 14:00:00 18.8 17 Nordeste 29 Este 0 -- -- 61
2018-05-19 13:00:00 18.1 18 Este 30 Este 0 -- -- 63
2018-05-19 12:00:00 17.1 16 Nordeste 24 Nordeste 0 -- -- 72
2018-05-19 11:00:00 16.2 3 Norte 9 Nordeste 0 -- -- 81
2018-05-19 10:00:00 13.7 0 Calma 7 Norte 0 -- -- 85
2018-05-19 09:00:00 11.1 2 Noroeste 7 Sudoeste 0 -- -- 95
2018-05-19 08:00:00 7.8 3 Sudoeste 4 Sudoeste 0 -- -- 100
2018-05-19 07:00:00 6.4 3 Sudoeste 8 Sudeste 0 -- -- 99
2018-05-19 06:00:00 7.3 2 Noroeste 10 Sur 0 -- -- 98
2018-05-19 05:00:00 7.3 2 Sur 10 Sur 0 -- -- 99
2018-05-19 04:00:00 7.2 7 Oeste 9 Oeste 0 -- -- 100
2018-05-19 03:00:00 5.6 0 Calma 3 Oeste 0 -- -- 98
2018-05-19 02:00:00 6.7 2 Sudoeste 6 Oeste 0 -- -- 97
2018-05-19 01:00:00 7.5 0 Calma 7 Este 0 -- -- 96
2018-05-19 00:00:00 8 5 Este 8 Este 0 -- -- 95
2018-05-18 23:00:00 9.3 4 Este 8 Este 0 -- -- 92
2018-05-18 22:00:00 11.6 7 Este 18 Este 0 -- -- 86
2018-05-18 21:00:00 14.3 10 Nordeste 20 Nordeste 0 -- -- 78
2018-05-18 20:00:00 16.5 12 Nordeste 19 Nordeste 0 -- -- 71
2018-05-18 19:00:00 16.8 10 Nordeste 21 Este 0 -- -- 68
2018-05-18 18:00:00 17.5 10 Nordeste 23 Este 0 -- -- 68
2018-05-18 17:00:00 17.8 14 Nordeste 23 Este 0 -- -- 66
2018-05-18 16:00:00 17.2 13 Nordeste 26 Nordeste 0 -- -- 70
2018-05-18 15:00:00 16.8 14 Nordeste 25 Nordeste 0 -- -- 72
2018-05-18 14:00:00 16.6 15 Nordeste 24 Este 0 -- -- 74
2018-05-18 13:00:00 15.6 14 Nordeste 25 Nordeste 0 -- -- 77
2018-05-18 12:00:00 14.9 15 Nordeste 22 Nordeste 0 -- -- 74
2018-05-18 11:00:00 13.6 10 Nordeste 15 Nordeste 0 -- -- 83
2018-05-18 10:00:00 12.1 10 Este 13 Este 0 -- -- 87
2018-05-18 09:00:00 11.4 10 Este 17 Este 0 -- -- 88
2018-05-18 08:00:00 10.8 8 Este 13 Este 0 -- -- 92
2018-05-18 07:00:00 10.3 6 Este 16 Este 0 -- -- 92
2018-05-18 06:00:00 10.3 5 Este 8 Este 0 -- -- 92
2018-05-18 05:00:00 10.5 4 Sudeste 12 Este 0 -- -- 91
2018-05-18 04:00:00 10.6 6 Este 11 Este 0 -- -- 91
2018-05-18 03:00:00 10.6 8 Este 10 Este 0 -- -- 92
2018-05-18 02:00:00 10.5 0 Calma 8 Sudeste 0 -- -- 94
2018-05-18 01:00:00 10.2 4 Sudeste 14 Este 0 -- -- 94
2018-05-18 00:00:00 9.4 5 Sudeste 13 Sudeste 0 -- -- 95
2018-05-17 23:00:00 10.6 9 Sudeste 16 Sudeste 0 -- -- 91
2018-05-17 22:00:00 11.6 9 Sudeste 22 Este 0 -- -- 87
2018-05-17 21:00:00 12.8 12 Este 25 Este 0 -- -- 82
2018-05-17 20:00:00 14.3 20 Este 30 Este 0 -- -- 75
2018-05-17 19:00:00 16.5 20 Este 28 Este 0 -- -- 71
2018-05-17 18:00:00 17.1 19 Este 25 Nordeste 0 -- -- 69
2018-05-17 17:00:00 17.9 13 Este 24 Nordeste 0 -- -- 67
2018-05-17 16:00:00 18.5 12 Este 21 Este 0 -- -- 67
2018-05-17 15:00:00 17.3 9 Nordeste 19 Este 0 -- -- 70
2018-05-17 14:00:00 16.2 6 Nordeste 15 Nordeste 0 -- -- 75
2018-05-17 13:00:00 15.1 9 Este 21 Nordeste 0 -- -- 77
2018-05-17 12:00:00 11.4 4 Norte 8 Sudeste 1.6 -- -- 92
2018-05-17 11:00:00 10.8 5 Este 12 Este 0 -- -- 87
2018-05-17 10:00:00 10.9 0 Calma 7 Sudeste 0 -- -- 88
2018-05-17 09:00:00 7.6 0 Calma 3 Oeste 0 -- -- 100
2018-05-17 08:00:00 4.9 2 Sudoeste 6 Sudoeste 0 -- -- 100
2018-05-17 07:00:00 2.5 0 Calma 3 Oeste 0 -- -- 100
2018-05-17 06:00:00 3.4 0 Calma 6 Sudoeste 0 -- -- 99
2018-05-17 05:00:00 3.8 2 Sudoeste 5 Sudoeste 0 -- -- 99
2018-05-17 04:00:00 4.7 0 Calma 3 Sudoeste 0 -- -- 96
2018-05-17 03:00:00 6 0 Calma 15 Sudeste 0 -- -- 95
2018-05-17 02:00:00 7.3 10 Sudeste 15 Sudeste 0 -- -- 95
2018-05-17 01:00:00 7.1 5 Sudeste 12 Este 0 -- -- 95
2018-05-17 00:00:00 7.7 10 Este 17 Este 0 -- -- 94
2018-05-16 23:00:00 8.5 11 Sudeste 19 Este 0 -- -- 92
2018-05-16 22:00:00 9.6 13 Este 23 Este 0 -- -- 89
2018-05-16 21:00:00 11.5 16 Este 27 Este 0 -- -- 82
2018-05-16 20:00:00 13.6 17 Este 27 Este 0 -- -- 76
2018-05-16 19:00:00 14.9 18 Este 28 Este 0 -- -- 72
2018-05-16 18:00:00 15.4 19 Este 36 Este 0 -- -- 70
2018-05-16 17:00:00 16 18 Este 28 Este 0 -- -- 67
2018-05-16 16:00:00 16 18 Este 32 Este 0 -- -- 69
2018-05-16 15:00:00 15.7 18 Este 27 Este 0 -- -- 69
2018-05-16 14:00:00 14.6 13 Este 27 Nordeste 0 -- -- 76
2018-05-16 13:00:00 13.9 9 Este 21 Este 0 -- -- 75
2018-05-16 12:00:00 12 11 Nordeste 17 Este 0 -- -- 78
2018-05-16 11:00:00 11.3 10 Este 20 Este 0 -- -- 78
2018-05-16 10:00:00 9.8 6 Este 14 Este 0 -- -- 84
2018-05-16 09:00:00 8.4 0 Calma 4 Norte 0 -- -- 89
2018-05-16 08:00:00 5.6 0 Calma 7 Oeste 0 -- -- 94
2018-05-16 07:00:00 3.7 2 Sudeste 15 Sudeste 0 -- -- 96
2018-05-16 06:00:00 4.8 8 Sudeste 15 Sudeste 0 -- -- 94
2018-05-16 05:00:00 5 10 Sudeste 18 Sudeste 0 -- -- 94
2018-05-16 04:00:00 5.1 13 Sudeste 19 Sudeste 0 -- -- 95
2018-05-16 03:00:00 5.3 12 Sudeste 24 Este 0 -- -- 92
2018-05-16 02:00:00 5.9 18 Este 24 Sudeste 0 -- -- 92
2018-05-16 01:00:00 6.7 14 Este 21 Este 0 -- -- 86
2018-05-16 00:00:00 6.8 14 Este 21 Este 0 -- -- 80
2018-05-15 23:00:00 7.5 13 Este 19 Este 0 -- -- 81
2018-05-15 22:00:00 8.7 14 Este 20 Este 0 -- -- 79
2018-05-15 21:00:00 11.2 12 Este 23 Este 0 -- -- 72
2018-05-15 20:00:00 12.4 15 Este 27 Este 0 -- -- 68
2018-05-15 19:00:00 13.9 18 Este 29 Este 0 -- -- 65
2018-05-15 18:00:00 15 14 Este 28 Este 0 -- -- 60
2018-05-15 17:00:00 14.4 15 Nordeste 31 Nordeste 0 -- -- 59
2018-05-15 16:00:00 15.4 19 Este 33 Este 0 -- -- 57
2018-05-15 15:00:00 15.6 8 Este 24 Nordeste 0 -- -- 57
2018-05-15 14:00:00 14.6 5 Este 22 Este 0 -- -- 62
2018-05-15 13:00:00 13 8 Nordeste 18 Nordeste 0 -- -- 59
2018-05-15 12:00:00 11.9 8 Nordeste 19 Nordeste 0 -- -- 63
2018-05-15 11:00:00 10.6 7 Nordeste 18 Nordeste 0 -- -- 64
2018-05-15 10:00:00 8.8 3 Oeste 8 Sur 0 -- -- 67
2018-05-15 09:00:00 6.4 2 Sur 5 Sur 0 -- -- 83
2018-05-15 08:00:00 3 0 Calma 3 Sudoeste 0 -- -- 98
2018-05-15 07:00:00 0.1 0 Calma 5 Oeste 0 -- -- 99
2018-05-15 06:00:00 1 0 Calma 5 Sudoeste 0 -- -- 100
2018-05-15 05:00:00 -0.2 0 Calma 2 Sudoeste 0 -- -- 98
2018-05-15 04:00:00 0.6 0 Calma 3 Sudoeste 0 -- -- 96
2018-05-15 03:00:00 1.1 0 Calma 4 Sudoeste 0 -- -- 96
2018-05-15 02:00:00 2.2 4 Sudoeste 9 Sudoeste 0 -- -- 93
2018-05-15 01:00:00 2.8 3 Sudoeste 12 Sudeste 0 -- -- 92
2018-05-15 00:00:00 2.9 3 Este 11 Este 0 -- -- 92
2018-05-14 23:00:00 4.1 7 Este 10 Este 0 -- -- 87
2018-05-14 22:00:00 6.4 9 Norte 15 Norte 0 -- -- 71
2018-05-14 21:00:00 8.5 9 Norte 25 Norte 0 -- -- 67
2018-05-14 20:00:00 10.3 17 Norte 30 Norte 0 -- -- 63
2018-05-14 19:00:00 12.1 21 Norte 34 Nordeste 0 -- -- 58
2018-05-14 18:00:00 13.5 18 Norte 32 Norte 0 -- -- 58
2018-05-14 17:00:00 14 14 Norte 32 Norte 0 -- -- 50
2018-05-14 16:00:00 14 17 Norte 27 Norte 0 -- -- 52
2018-05-14 15:00:00 13 18 Norte 32 Norte 0 -- -- 58
2018-05-14 14:00:00 13.1 16 Norte 27 Norte 0 -- -- 61
2018-05-14 13:00:00 12.3 15 Norte 27 Norte 0 -- -- 75
2018-05-14 12:00:00 11.7 13 Norte 23 Noroeste 0 -- -- 75
2018-05-14 11:00:00 9.9 9 Noroeste 18 Noroeste 0 -- -- 82
2018-05-14 10:00:00 9 5 Noroeste 11 Noroeste 0 -- -- 86
2018-05-14 09:00:00 7.2 4 Norte 8 Noroeste 0 -- -- 88
2018-05-14 08:00:00 6.1 0 Calma 4 Sur 0 -- -- 97
2018-05-14 07:00:00 5.8 3 Sudoeste 5 Sudoeste 0.2 -- -- 97
2018-05-14 06:00:00 5.8 2 Sur 8 Sudoeste 0.4 -- -- 97
2018-05-14 05:00:00 5.9 5 Sudoeste 7 Sudoeste 0.6 -- -- 97
2018-05-14 04:00:00 6 0 Calma 10 Oeste 0.8 -- -- 95
2018-05-14 03:00:00 6 4 Sudoeste 8 Oeste 0.4 -- -- 94
2018-05-14 02:00:00 6 4 Sudoeste 10 Noroeste 0.6 -- -- 95
2018-05-14 01:00:00 6.1 4 Noroeste 16 Noroeste 0.2 -- -- 92
2018-05-11 20:00:00 -- -- -- -- -- -- -- -- --
2018-05-11 19:00:00 -- -- -- -- -- -- -- -- --
2018-05-11 18:00:00 -- -- -- -- -- -- -- -- --
2018-05-11 17:00:00 22 20 Sudoeste 43 Oeste 0 -- -- 51
2018-05-11 16:00:00 21.5 21 Oeste 31 Oeste 0 -- -- 51
2018-05-11 15:00:00 20.9 19 Oeste 33 Sudoeste 0 -- -- 50
2018-05-11 14:00:00 20.8 20 Oeste 32 Oeste 0 -- -- 54
2018-05-11 13:00:00 19.6 6 Nordeste 16 Norte 0 -- -- 53
2018-05-11 12:00:00 17.4 6 Nordeste 12 Nordeste 0 -- -- 62
2018-05-11 11:00:00 14.2 4 Nordeste 10 Este 0 -- -- 69
2018-05-11 10:00:00 10.8 0 Calma 6 Oeste 0 -- -- 80
2018-05-11 09:00:00 7 4 Sudoeste 10 Oeste 0 -- -- 92
2018-05-11 08:00:00 3.4 4 Sudoeste 9 Sur 0 -- -- 96
2018-05-11 07:00:00 1.1 4 Sudoeste 8 Sudeste 0 -- -- 99
2018-05-11 06:00:00 1.3 3 Sur 8 Oeste 0 -- -- 97
2018-05-11 05:00:00 1.8 4 Sur 10 Oeste 0 -- -- 97
2018-05-11 04:00:00 2.3 7 Sudoeste 12 Sudeste 0 -- -- 96
2018-05-11 03:00:00 2.2 4 Sudoeste 9 Sur 0 -- -- 96
2018-05-11 02:00:00 2.8 3 Sur 10 Sur 0 -- -- 95
2018-05-11 01:00:00 3.6 6 Sur 10 Sudoeste 0 -- -- 93
2018-05-11 00:00:00 5 9 Sur 15 Sudeste 0 -- -- 88
2018-05-10 23:00:00 6.2 10 Sudeste 21 Este 0 -- -- 83
2018-05-10 22:00:00 7.9 15 Este 24 Este 0 -- -- 77
2018-05-10 21:00:00 10.5 14 Este 24 Este 0 -- -- 68
2018-05-10 20:00:00 12.8 16 Este 23 Este 0 -- -- 62
2018-05-10 19:00:00 14 12 Este 22 Este 0 -- -- 60
2018-05-10 18:00:00 14.6 11 Nordeste 25 Este 0 -- -- 59
2018-05-10 17:00:00 14.2 14 Nordeste 26 Nordeste 0 -- -- 59
2018-05-10 16:00:00 14.3 12 Nordeste 27 Nordeste 0 -- -- 59
2018-05-10 15:00:00 13.6 14 Nordeste 29 Nordeste 0 -- -- 59
2018-05-10 14:00:00 13 14 Nordeste 25 Nordeste 0 -- -- 65
2018-05-10 13:00:00 12.6 15 Nordeste 27 Nordeste 0 -- -- 70
2018-05-10 12:00:00 11.4 13 Nordeste 19 Nordeste 0 -- -- 80
2018-05-10 11:00:00 10.7 9 Norte 15 Nordeste 0 -- -- 85
2018-05-10 10:00:00 10.7 4 Este 10 Sudeste 0 -- -- 79
2018-05-10 09:00:00 9.6 7 Sudeste 14 Sudeste 0 -- -- 84
2018-05-10 08:00:00 8.4 9 Sudeste 14 Sudeste 0 -- -- 92
2018-05-10 07:00:00 8.3 2 Este 7 Este 0 -- -- 88
2018-05-10 06:00:00 8 0 Calma 9 Norte 0 -- -- 92
2018-05-10 05:00:00 8.6 8 Nordeste 15 Nordeste 0 -- -- 89
2018-05-10 04:00:00 9.2 5 Nordeste 15 Nordeste 0 -- -- 91
2018-05-10 03:00:00 9.5 6 Nordeste 15 Este 0 -- -- 92
2018-05-10 02:00:00 9.6 6 Nordeste 13 Este 0 -- -- 93
2018-05-10 01:00:00 9.8 8 Este 15 Nordeste 0 -- -- 93
2018-05-10 00:00:00 10.2 11 Nordeste 19 Nordeste 0 -- -- 91
2018-05-09 23:00:00 10.7 12 Este 20 Nordeste 0 -- -- 90
2018-05-09 22:00:00 11.3 12 Nordeste 21 Nordeste 0 -- -- 89
2018-05-09 21:00:00 12.3 13 Nordeste 21 Nordeste 0 -- -- 88
2018-05-09 20:00:00 13.5 12 Nordeste 28 Nordeste 0 -- -- 82
2018-05-09 19:00:00 15.3 18 Nordeste 30 Nordeste 0 -- -- 74
2018-05-09 18:00:00 17.3 12 Nordeste 20 Nordeste 0 -- -- 69
2018-05-09 17:00:00 18.5 4 Este 17 Nordeste 0 -- -- 60
2018-05-09 16:00:00 17.6 8 Nordeste 17 Norte 0 -- -- 63
2018-05-09 15:00:00 17.2 9 Norte 19 Nordeste 0 -- -- 71
2018-05-09 14:00:00 15.8 10 Norte 17 Nordeste 0 -- -- 74
2018-05-09 13:00:00 14.4 6 Nordeste 16 Nordeste 0 -- -- 79
2018-05-09 12:00:00 13 5 Este 13 Este 0 -- -- 81
2018-05-09 11:00:00 11.8 7 Nordeste 13 Nordeste 0 -- -- 84
2018-05-09 10:00:00 10.7 3 Este 9 Sudeste 0 -- -- 86
2018-05-09 09:00:00 9.5 0 Calma 10 Sudeste 0 -- -- 91
2018-05-09 08:00:00 8.9 4 Sur 13 Sudeste 0 -- -- 94
2018-05-09 07:00:00 8.3 10 Sudeste 20 Sur 0 -- -- 95
2018-05-09 06:00:00 8 11 Sudeste 19 Sudeste 0 -- -- 98
2018-05-09 05:00:00 8.2 3 Norte 11 Nordeste 0 -- -- 97
2018-05-09 04:00:00 9 8 Este 10 Este 0 -- -- 98
2018-05-09 03:00:00 9 5 Sudeste 12 Este 0 -- -- 96
2018-05-09 02:00:00 10.1 10 Este 18 Sudeste 0 -- -- 96
2018-05-09 01:00:00 10.6 8 Este 13 Este 0 -- -- 96
2018-05-09 00:00:00 11.1 8 Sudeste 15 Sudeste 0 -- -- 97
2018-05-08 23:00:00 10.8 10 Sudeste 17 Sudeste 0 -- -- 96
2018-05-08 22:00:00 10.7 6 Sudeste 11 Sudeste 0 -- -- 91
2018-05-08 21:00:00 12.7 4 Nordeste 15 Norte 0 -- -- 86
2018-05-08 20:00:00 13.9 10 Norte 30 Norte 0 -- -- 82
2018-05-08 19:00:00 15.1 16 Norte 27 Norte 0 -- -- 78
2018-05-08 18:00:00 16.4 17 Nordeste 29 Nordeste 0 -- -- 76
2018-05-08 17:00:00 17.7 17 Nordeste 24 Norte 0 -- -- 73
2018-05-08 16:00:00 17.2 13 Este 20 Este 0 -- -- 76
2018-05-08 15:00:00 17.9 13 Este 22 Este 0 -- -- 76
2018-05-08 14:00:00 16.2 11 Este 19 Este 0 -- -- 83
2018-05-08 13:00:00 14.7 12 Este 17 Este 0 -- -- 89
2018-05-08 12:00:00 14.9 9 Este 13 Este 0 -- -- 87
2018-05-08 11:00:00 15.5 7 Nordeste 11 Nordeste 0 -- -- 84
2018-05-08 10:00:00 15.2 2 Nordeste 9 Norte 0 -- -- 85
2018-05-08 09:00:00 12.8 0 Calma 6 Oeste 0 -- -- 92
2018-05-08 08:00:00 11 3 Sudoeste 9 Sur 0 -- -- 99
2018-05-08 07:00:00 9.7 0 Calma 9 Sudeste 0 -- -- 99
2018-05-08 06:00:00 9.2 3 Sudoeste 8 Oeste 0 -- -- 97
2018-05-08 05:00:00 10 5 Sudoeste 8 Sudoeste 0 -- -- 97
2018-05-08 04:00:00 10.3 4 Sur 11 Sur 0 -- -- 97
2018-05-08 03:00:00 9.6 0 Calma 4 Sur 0 -- -- 94
2018-05-08 02:00:00 11 0 Calma 9 Sudoeste 0 -- -- 93
2018-05-08 01:00:00 12.6 3 Sudeste 11 Sudoeste 0 -- -- 90
2018-05-08 00:00:00 14 7 Sudeste 12 Sudeste 0 -- -- 84
2018-05-07 23:00:00 14.1 0 Calma 14 Este 0 -- -- 84
2018-05-07 22:00:00 15.3 9 Este 18 Este 0 -- -- 77
2018-05-07 21:00:00 18.5 14 Este 26 Este 0 -- -- 66
2018-05-07 20:00:00 20.3 17 Este 23 Este 0 -- -- 66
2018-05-07 19:00:00 20.4 10 Nordeste 21 Norte 0 -- -- 69
2018-05-07 18:00:00 22.5 18 Nordeste 23 Nordeste 0 -- -- 62
2018-05-07 17:00:00 23.6 12 Nordeste 21 Nordeste 0 -- -- 58
2018-05-07 16:00:00 23 10 Nordeste 21 Nordeste 0 -- -- 56
2018-05-07 15:00:00 22.8 7 Nordeste 19 Este 0 -- -- 58
2018-05-07 14:00:00 21.9 7 Nordeste 17 Nordeste 0 -- -- 63
2018-05-07 13:00:00 21.2 9 Nordeste 18 Nordeste 0 -- -- 64
2018-05-07 12:00:00 20.7 5 Este 11 Nordeste 0 -- -- 64
2018-05-07 11:00:00 18.7 0 Calma 5 Noroeste 0 -- -- 70
2018-05-07 10:00:00 15.6 0 Calma 14 Sur 0 -- -- 76
2018-05-07 09:00:00 11.9 4 Sur 14 Sur 0 -- -- 85
2018-05-07 08:00:00 8.4 3 Sur 12 Sudoeste 0 -- -- 94
2018-05-07 07:00:00 7.4 5 Sudoeste 14 Sur 0 -- -- 94
2018-05-07 06:00:00 8.1 5 Sur 14 Sudeste 0 -- -- 94
2018-05-07 05:00:00 8.2 3 Sur 9 Sur 0 -- -- 96
2018-05-07 04:00:00 8.6 4 Oeste 10 Sudoeste 0 -- -- 95
2018-05-07 03:00:00 9 4 Sudoeste 9 Sudoeste 0 -- -- 96
2018-05-07 02:00:00 9.7 0 Calma 11 Sudoeste 0 -- -- 93
2018-05-07 01:00:00 12.1 7 Sur 14 Sudeste 0 -- -- 89
2018-05-07 00:00:00 12.8 8 Sur 18 Este 0 -- -- 87
2018-05-06 23:00:00 14.6 12 Este 17 Este 0 -- -- 81
2018-05-06 22:00:00 15.5 10 Este 18 Este 0 -- -- 79
2018-05-06 21:00:00 18.3 9 Sudeste 11 Sudeste 0 -- -- 60
2018-05-06 20:00:00 21.2 5 Sudeste 19 Este 0 -- -- 54
2018-05-06 19:00:00 21.9 11 Este 18 Este 0 -- -- 48
2018-05-06 18:00:00 21.9 12 Este 21 Este 0 -- -- 49
2018-05-06 17:00:00 21.6 10 Nordeste 26 Este 0 -- -- 53
2018-05-06 16:00:00 21.4 12 Este 24 Este 0 -- -- 59
2018-05-06 15:00:00 20.9 11 Este 21 Este 0 -- -- 57
2018-05-06 14:00:00 20 11 Este 21 Este 0 -- -- 62
2018-05-06 13:00:00 19 6 Nordeste 15 Este 0 -- -- 69
2018-05-06 12:00:00 16.7 4 Nordeste 9 Norte 0 -- -- 72
2018-05-06 11:00:00 14.2 3 Norte 8 Norte 0 -- -- 76
2018-05-06 10:00:00 11.9 2 Nordeste 4 Norte 0 -- -- 78
2018-05-06 09:00:00 8.8 3 Sudoeste 10 Sudoeste 0 -- -- 89
2018-05-06 08:00:00 5.7 6 Sudoeste 10 Sur 0 -- -- 96
2018-05-06 07:00:00 4.6 2 Sur 13 Sur 0 -- -- 94
2018-05-06 06:00:00 5.2 6 Sudoeste 13 Sudoeste 0 -- -- 97
2018-05-06 05:00:00 5.2 6 Sudoeste 10 Sudoeste 0 -- -- 98
2018-05-06 04:00:00 5.6 3 Sudoeste 8 Sudoeste 0 -- -- 94
2018-05-06 03:00:00 7.3 6 Sudeste 16 Sudeste 0 -- -- 90
2018-05-06 02:00:00 8.4 13 Sudeste 18 Sudeste 0 -- -- 87
2018-05-06 01:00:00 8.5 9 Sudeste 13 Este 0 -- -- 90
2018-05-06 00:00:00 9.9 10 Este 15 Este 0 -- -- 86
2018-05-05 23:00:00 10.9 12 Este 19 Este 0 -- -- 84
2018-05-05 22:00:00 11.4 12 Este 19 Este 0 -- -- 82
2018-05-05 21:00:00 12 12 Este 25 Este 0 -- -- 81
2018-05-05 20:00:00 14.1 15 Nordeste 23 Este 0 -- -- 74
2018-05-05 19:00:00 14.5 15 Este 22 Nordeste 0 -- -- 71
2018-05-05 18:00:00 14.7 17 Nordeste 30 Nordeste 0 -- -- 70
2018-05-05 17:00:00 15.8 17 Nordeste 28 Nordeste 0 -- -- 68
2018-05-05 16:00:00 15.7 13 Nordeste 29 Nordeste 0 -- -- 68
2018-05-05 15:00:00 15.8 19 Nordeste 32 Este 0 -- -- 69
2018-05-05 14:00:00 15.3 20 Este 32 Este 0 -- -- 67
2018-05-05 13:00:00 14.5 8 Nordeste 22 Nordeste 0 -- -- 70
2018-05-05 12:00:00 13 6 Nordeste 13 Sudeste 0 -- -- 76
2018-05-05 11:00:00 11 3 Norte 11 Nordeste 0 -- -- 75
2018-05-05 10:00:00 9.9 4 Este 10 Este 0 -- -- 78
2018-05-05 09:00:00 8.2 4 Este 9 Sudeste 0 -- -- 85
2018-05-05 08:00:00 5.8 0 Calma 12 Sudeste 0 -- -- 96
2018-05-05 07:00:00 5.5 5 Sudeste 9 Sudeste 0 -- -- 95
2018-05-05 06:00:00 4.8 8 Este 13 Este 0 -- -- 96
2018-05-05 05:00:00 5.5 3 Este 13 Sudeste 0 -- -- 95
2018-05-05 04:00:00 5.1 6 Este 12 Este 0 -- -- 95
2018-05-05 03:00:00 5.1 6 Nordeste 13 Este 0 -- -- 93
2018-05-05 02:00:00 4.8 7 Sudeste 12 Este 0 -- -- 93
2018-05-05 01:00:00 4.6 11 Este 15 Este 0 -- -- 93
2018-05-05 00:00:00 5.8 10 Este 14 Este 0 -- -- 89
2018-05-04 23:00:00 7 10 Nordeste 14 Nordeste 0 -- -- 87
2018-05-04 22:00:00 8 9 Nordeste 15 Nordeste 0 -- -- 82
2018-05-04 21:00:00 8.5 8 Nordeste 23 Nordeste 0 -- -- 81
2018-05-04 20:00:00 9 12 Nordeste 24 Nordeste 0 -- -- 80
2018-05-04 19:00:00 9.4 18 Nordeste 35 Norte 0 -- -- 77
2018-05-04 18:00:00 9.9 19 Nordeste 28 Nordeste 0 -- -- 76
2018-05-04 17:00:00 10.3 18 Nordeste 27 Nordeste 0 -- -- 74
2018-05-04 16:00:00 10.6 17 Nordeste 29 Norte 0 -- -- 76
2018-05-04 15:00:00 10.2 18 Nordeste 31 Norte 0 -- -- 71
2018-05-04 14:00:00 10.1 20 Nordeste 32 Nordeste 0 -- -- 76
2018-05-04 13:00:00 9.5 17 Norte 30 Nordeste 0 -- -- 76
2018-05-04 12:00:00 8.5 15 Nordeste 27 Norte 0 -- -- 77
2018-05-04 11:00:00 7.9 18 Norte 27 Norte 0 -- -- 82
2018-05-04 10:00:00 6.9 12 Norte 23 Nordeste 0 -- -- 83
2018-05-04 09:00:00 6 11 Norte 16 Norte 0 -- -- 83
2018-05-04 08:00:00 5.1 6 Nordeste 9 Nordeste 0 -- -- 86
2018-05-04 07:00:00 4.5 6 Este 21 Este 0 -- -- 90
2018-05-04 06:00:00 5.2 9 Nordeste 18 Nordeste 0 -- -- 86
2018-05-04 05:00:00 4.9 11 Nordeste 24 Nordeste 0 -- -- 83
2018-05-04 04:00:00 5.3 8 Nordeste 16 Nordeste 0 -- -- 83
2018-05-04 03:00:00 5.7 8 Nordeste 13 Nordeste 0 -- -- 83
2018-05-04 02:00:00 5.7 9 Nordeste 21 Nordeste 0 -- -- 79
2018-05-04 01:00:00 6.1 13 Nordeste 26 Norte 0 -- -- 79
2018-05-04 00:00:00 6.3 15 Nordeste 25 Nordeste 0 -- -- 78
2018-05-03 23:00:00 6.5 20 Nordeste 30 Nordeste 0 -- -- 76
2018-05-03 22:00:00 6.2 12 Nordeste 23 Norte 0 -- -- 79
2018-05-03 21:00:00 7.4 13 Norte 23 Norte 0 -- -- 70
2018-05-03 20:00:00 8.1 10 Nordeste 28 Nordeste 0 -- -- 75
2018-05-03 19:00:00 7.9 18 Norte 34 Norte 0 -- -- 73
2018-05-03 18:00:00 9 16 Norte 36 Nordeste 0 -- -- 69
2018-05-03 17:00:00 9.7 20 Nordeste 35 Nordeste 0 -- -- 64
2018-05-03 16:00:00 9.6 19 Norte 37 Nordeste 0 -- -- 62
2018-05-03 15:00:00 11.3 22 Nordeste 36 Norte 0 -- -- 62
2018-05-03 14:00:00 9.4 17 Norte 32 Noroeste 0 -- -- 72
2018-05-03 13:00:00 9.3 20 Norte 32 Norte 0 -- -- 76
2018-05-03 12:00:00 7.8 12 Norte 19 Norte 0 -- -- 77
2018-05-03 11:00:00 7.4 13 Norte 30 Norte 0 -- -- 71
2018-05-03 10:00:00 8 15 Norte 24 Norte 0 -- -- 77
2018-05-03 09:00:00 6.5 9 Norte 18 Norte 0 -- -- 88
2018-05-03 08:00:00 6.2 8 Norte 14 Noroeste 0 -- -- 92
2018-05-03 07:00:00 6.4 5 Noroeste 18 Noroeste 0 -- -- 92
2018-05-03 06:00:00 6.9 4 Noroeste 9 Noroeste 0 -- -- 94
2018-05-03 05:00:00 7.1 6 Norte 18 Noroeste 0 -- -- 92
2018-05-03 04:00:00 8.3 6 Noroeste 26 Noroeste 0 -- -- 92
2018-05-03 03:00:00 9.3 15 Noroeste 25 Oeste 0.2 -- -- 89
2018-05-03 02:00:00 10 4 Noroeste 16 Oeste 0 -- -- 93
2018-05-03 01:00:00 10.2 5 Oeste 11 Oeste 0 -- -- 91
2018-05-03 00:00:00 10.3 4 Oeste 9 Noroeste 0 -- -- 91
2018-05-02 23:00:00 10.3 4 Oeste 9 Noroeste 0.2 -- -- 93
2018-05-02 22:00:00 10.4 0 Calma 4 Nordeste 0.4 -- -- 92
2018-05-02 21:00:00 10.9 3 Nordeste 10 Norte 0 -- -- 88
2018-05-02 20:00:00 11.9 5 Norte 9 Norte 0 -- -- 81
2018-05-02 19:00:00 12 4 Norte 14 Norte 0 -- -- 80
2018-05-02 18:00:00 12.6 6 Norte 16 Noroeste 0 -- -- 74
2018-05-02 17:00:00 12.8 9 Noroeste 20 Oeste 0 -- -- 68
2018-05-02 16:00:00 13.1 10 Noroeste 26 Oeste 0 -- -- 66
2018-05-02 15:00:00 13.1 18 Oeste 31 Oeste 0 -- -- 67
2018-05-02 14:00:00 12.7 15 Oeste 29 Sudoeste 0 -- -- 62
2018-05-02 13:00:00 12.7 19 Oeste 34 Oeste 0 -- -- 59
2018-05-02 12:00:00 12 20 Oeste 33 Sudoeste 0 -- -- 62
2018-05-02 11:00:00 10 18 Oeste 30 Sudoeste 0 -- -- 64
2018-05-02 10:00:00 8.9 15 Sudoeste 25 Oeste 0 -- -- 65
2018-05-02 09:00:00 7.8 17 Sudoeste 25 Sudoeste 0 -- -- 73
2018-05-02 08:00:00 6.8 16 Sudoeste 23 Sudoeste 0 -- -- 74
2018-05-02 07:00:00 4.9 6 Sudoeste 9 Sudoeste 0 -- -- 83
2018-05-02 06:00:00 5.7 2 Norte 9 Sudoeste 0 -- -- 79
2018-05-02 05:00:00 4.8 2 Este 19 Sudoeste 0 -- -- 83
2018-05-02 04:00:00 5.7 12 Sudoeste 18 Sudoeste 0 -- -- 77
2018-05-02 03:00:00 5 7 Sudeste 17 Sudeste 0 -- -- 80
2018-05-02 02:00:00 5.3 4 Sur 9 Sur 0 -- -- 81
2018-05-02 01:00:00 5.3 4 Sur 10 Sur 0 -- -- 82
2018-05-02 00:00:00 5.3 3 Sudoeste 12 Sudeste 0 -- -- 80
2018-05-01 23:00:00 7.1 9 Sudeste 13 Sudeste 0 -- -- 69
2018-05-01 22:00:00 7.7 10 Sudeste 19 Sudeste 0 -- -- 71
2018-05-01 21:00:00 8.9 10 Sudeste 14 Sudeste 0 -- -- 68
2018-05-01 20:00:00 10.7 10 Sudeste 17 Este 0 -- -- 62
2018-05-01 19:00:00 12.2 8 Este 17 Este 0 -- -- 47
2018-05-01 18:00:00 13.2 5 Sur 17 Sudeste 0 -- -- 50
2018-05-01 17:00:00 11.8 6 Nordeste 24 Este 0 -- -- 59
2018-05-01 16:00:00 11.4 5 Noroeste 16 Nordeste 0 -- -- 54
2018-05-01 15:00:00 10.6 10 Nordeste 17 Nordeste 0 -- -- 61
2018-05-01 14:00:00 9.9 6 Nordeste 14 Norte 0 -- -- 68
2018-05-01 13:00:00 8.1 2 Norte 10 Noroeste 0 -- -- 72
2018-05-01 12:00:00 7.7 6 Nordeste 14 Nordeste 0 -- -- 74
2018-05-01 11:00:00 6 4 Norte 9 Norte 0 -- -- 80
2018-05-01 10:00:00 6 2 Sudeste 7 Noroeste 0 -- -- 82
2018-05-01 09:00:00 4.5 0 Calma 9 Sur 0 -- -- 90
2018-05-01 08:00:00 2.3 2 Sudoeste 11 Sudeste 0 -- -- 99
2018-05-01 07:00:00 0.7 3 Sudoeste 8 Sudeste 0 -- -- 96
2018-05-01 06:00:00 2.8 2 Sur 5 Sudoeste 0 -- -- 95
2018-05-01 05:00:00 2.7 3 Sudoeste 9 Sur 0 -- -- 97
2018-05-01 04:00:00 2.1 5 Sur 11 Sur 0 -- -- 96
2018-05-01 03:00:00 1.6 0 Calma 8 Sur 0 -- -- 97
2018-05-01 02:00:00 2.5 3 Sudoeste 6 Sudoeste 0 -- -- 92
2018-05-01 01:00:00 3.4 0 Calma 7 Noroeste 0 -- -- 94
2018-05-01 00:00:00 3.1 4 Sudoeste 8 Sudoeste 0 -- -- 97
2018-04-30 23:00:00 3.4 3 Noroeste 6 Oeste 0 -- -- 93
2018-04-30 22:00:00 4.2 3 Noroeste 15 Noroeste 0.2 -- -- 92
2018-04-30 21:00:00 5.2 14 Norte 24 Norte 0 -- -- 90
2018-04-30 20:00:00 6.9 13 Norte 26 Norte 0 -- -- 80
2018-04-30 19:00:00 8.5 15 Noroeste 26 Norte 0 -- -- 70
2018-04-30 18:00:00 7.9 15 Norte 30 Noroeste 0 -- -- 74
2018-04-30 17:00:00 7.9 13 Noroeste 26 Norte 0 -- -- 77
2018-04-30 16:00:00 8.2 15 Noroeste 29 Oeste 0 -- -- 70
2018-04-30 15:00:00 8.7 13 Oeste 33 Oeste 0 -- -- 59
2018-04-30 14:00:00 9.7 19 Oeste 34 Sudoeste 0 -- -- 55
2018-04-30 13:00:00 9.1 22 Sudoeste 39 Sudoeste 0 -- -- 65
2018-04-30 12:00:00 7.6 19 Sudoeste 40 Sudoeste 0 -- -- 67
2018-04-30 11:00:00 6.1 24 Sudoeste 37 Oeste 0 -- -- 72
2018-04-30 10:00:00 4.7 20 Sudoeste 36 Sudoeste 0 -- -- 79
2018-04-30 09:00:00 4.2 21 Sudoeste 33 Oeste 0 -- -- 81
2018-04-30 08:00:00 2.9 17 Sudoeste 33 Sudoeste 0 -- -- 88
2018-04-30 07:00:00 3.2 14 Sudoeste 27 Sudoeste 0 -- -- 85
2018-04-30 06:00:00 3.2 22 Sudoeste 33 Oeste 0 -- -- 85
2018-04-30 05:00:00 3.1 16 Sudoeste 28 Sudoeste 0 -- -- 88
2018-04-30 04:00:00 3.6 16 Sudoeste 35 Sudoeste 0 -- -- 88
2018-04-30 03:00:00 3.9 17 Sudoeste 33 Sudoeste 0 -- -- 87
2018-04-30 02:00:00 5.2 19 Sudoeste 31 Sudoeste 0 -- -- 85
2018-04-30 01:00:00 5.4 24 Sudoeste 44 Sudoeste 0 -- -- 84
2018-04-30 00:00:00 5.5 19 Sudoeste 40 Sudoeste 0 -- -- 84
2018-04-29 23:00:00 5.7 9 Sudoeste 27 Oeste 0 -- -- 82
2018-04-29 22:00:00 7 15 Oeste 28 Oeste 0 -- -- 75
2018-04-29 21:00:00 8.4 17 Sudoeste 28 Oeste 0 -- -- 68
2018-04-29 20:00:00 9.5 13 Oeste 31 Oeste 0 -- -- 68
2018-04-29 19:00:00 8.8 24 Oeste 42 Sudoeste 0 -- -- 72
2018-04-29 18:00:00 7.8 23 Oeste 57 Sudoeste 0 -- -- 77
2018-04-29 17:00:00 10.5 22 Sudoeste 45 Sudoeste 0 -- -- 76
2018-04-29 16:00:00 11.1 30 Sudoeste 49 Sudoeste 0 -- -- 71
2018-04-29 15:00:00 8.4 35 Sudoeste 48 Sudoeste 0 -- -- 78
2018-04-29 14:00:00 9 17 Oeste 31 Oeste 0.2 -- -- 74
2018-04-29 13:00:00 8.1 12 Sudoeste 32 Oeste 0.4 -- -- 85
2018-04-29 12:00:00 10.4 10 Noroeste 19 Noroeste 0 -- -- 77
2018-04-29 11:00:00 8.9 8 Noroeste 16 Oeste 0 -- -- 84
2018-04-29 10:00:00 7.9 10 Noroeste 15 Oeste 0 -- -- 87
2018-04-29 09:00:00 4.9 0 Calma 6 Nordeste 0 -- -- 100
2018-04-29 08:00:00 5.2 0 Calma 0 Calma 0 -- -- 100
2018-04-29 07:00:00 5.7 4 Norte 7 Norte 0 -- -- 98
2018-04-29 06:00:00 5.4 0 Calma 4 Este 0 -- -- 99
2018-04-29 05:00:00 5.9 2 Norte 6 Norte 0 -- -- 96
2018-04-29 04:00:00 6.3 0 Calma 3 Este 0 -- -- 96
2018-04-29 03:00:00 6.3 0 Calma 10 Oeste 0 -- -- 95
2018-04-29 02:00:00 6.4 5 Noroeste 13 Oeste 0 -- -- 94
2018-04-29 01:00:00 7.7 2 Nordeste 8 Sudeste 0 -- -- 96
2018-04-29 00:00:00 7.9 4 Este 15 Nordeste 0 -- -- 97
2018-04-28 23:00:00 8.7 10 Nordeste 17 Este 0 -- -- 97
2018-04-28 22:00:00 9.4 9 Este 14 Este 0 -- -- 97
2018-04-28 21:00:00 10 5 Nordeste 20 Sudeste 0 -- -- 95
2018-04-28 20:00:00 10.9 13 Este 18 Sudeste 0 -- -- 91
2018-04-28 19:00:00 12.3 4 Sudeste 15 Sudeste 0 -- -- 81
2018-04-28 18:00:00 12.5 8 Sudeste 20 Este 0 -- -- 80
2018-04-28 17:00:00 12.2 10 Este 17 Este 0 -- -- 81
2018-04-28 16:00:00 11.4 10 Nordeste 17 Este 0 -- -- 82
2018-04-28 15:00:00 11.2 8 Este 18 Nordeste 0 -- -- 83
2018-04-28 14:00:00 9.4 10 Nordeste 18 Nordeste 0 -- -- 91
2018-04-28 13:00:00 8.9 6 Este 19 Este 0 -- -- 90
2018-04-28 12:00:00 8 8 Nordeste 19 Este 0 -- -- 94
2018-04-28 11:00:00 7.3 14 Nordeste 19 Este 0 -- -- 94
2018-04-28 10:00:00 6.6 12 Nordeste 24 Este 0 -- -- 96
2018-04-28 09:00:00 6.3 12 Este 21 Este 0 -- -- 97
2018-04-28 08:00:00 5.9 12 Este 19 Este 0 -- -- 98
2018-04-28 07:00:00 5.7 12 Este 21 Este 0 -- -- 98
2018-04-28 06:00:00 5.7 10 Este 20 Este 0 -- -- 98
2018-04-28 05:00:00 5.9 10 Este 16 Este 0 -- -- 97
2018-04-28 04:00:00 5.9 9 Este 14 Este 2.2 -- -- 98
2018-04-28 03:00:00 5.9 5 Este 9 Este 2.2 -- -- 98
2018-04-28 02:00:00 5.8 2 Nordeste 12 Nordeste 3 -- -- 98
2018-04-28 01:00:00 6 6 Este 16 Este 1.8 -- -- 96
2018-04-28 00:00:00 6.8 15 Este 25 Este 0 -- -- 87
2018-04-27 23:00:00 7.2 14 Este 23 Este 0 -- -- 89
2018-04-27 22:00:00 7.5 11 Este 22 Este 0 -- -- 91
2018-04-27 21:00:00 8.2 13 Nordeste 27 Este 0 -- -- 89
2018-04-27 20:00:00 9 18 Este 27 Este 0 -- -- 88
2018-04-27 19:00:00 10.4 22 Este 32 Este 0 -- -- 87
2018-04-27 18:00:00 12.3 18 Nordeste 33 Este 0 -- -- 82
2018-04-27 17:00:00 12.9 22 Este 31 Nordeste 0 -- -- 81
2018-04-27 16:00:00 14.6 18 Este 28 Este 0 -- -- 75
2018-04-27 15:00:00 16.2 15 Este 22 Nordeste 0 -- -- 70
2018-04-27 14:00:00 15.9 7 Sudeste 23 Este 0 -- -- 69
2018-04-27 13:00:00 15.5 15 Este 24 Este 0 -- -- 70
2018-04-27 12:00:00 14.2 14 Este 22 Este 0 -- -- 72
2018-04-27 11:00:00 14.4 11 Este 22 Este 0 -- -- 79
2018-04-27 10:00:00 10.9 6 Nordeste 14 Este 0 -- -- 99
2018-04-27 09:00:00 9.1 2 Oeste 5 Sudeste 0 -- -- 100
2018-04-27 08:00:00 7 6 Norte 9 Noroeste 0 -- -- 100
2018-04-27 07:00:00 5.9 0 Calma 0 Calma 0 -- -- 100
2018-04-27 06:00:00 7.1 0 Calma -- -- 0 -- -- 98
2018-04-27 05:00:00 7.8 0 Calma 6 Sur 0 -- -- 96
2018-04-27 04:00:00 8.1 8 Sur 14 Sur -- -- -- 96
2018-04-27 03:00:00 7.1 2 Sudoeste 10 Sur 0 -- -- 96
2018-04-27 02:00:00 6.5 3 Sur 12 Sur 0 -- -- 96
2018-04-27 01:00:00 7.3 6 Sur 11 Sur 0 -- -- 95
2018-04-27 00:00:00 8.1 5 Sur 8 Sur 0 -- -- 93
2018-04-26 23:00:00 8.1 0 Calma 8 Sudoeste 0 -- -- 91
2018-04-26 22:00:00 9.7 9 Sudeste 21 Sudeste 0 -- -- 88
2018-04-26 21:00:00 12.1 11 Este 16 Este 0 -- -- 79
2018-04-26 20:00:00 14.4 10 Este 19 Este 0 -- -- 70
2018-04-26 19:00:00 15.3 9 Este 16 Este 0 -- -- 70
2018-04-26 18:00:00 15.4 10 Nordeste 19 Este 0 -- -- 68
2018-04-26 17:00:00 15.3 10 Este 23 Este 0 -- -- 67
2018-04-26 16:00:00 14.7 10 Este 23 Este 0 -- -- 70
2018-04-26 15:00:00 13.9 9 Este 23 Este 0 -- -- 69
2018-04-26 14:00:00 12.8 12 Este 24 Nordeste 0 -- -- 70
2018-04-26 13:00:00 12.1 13 Este 26 Este 0 -- -- 74
2018-04-26 12:00:00 11.2 14 Este 27 Este 0 -- -- 77
2018-04-26 11:00:00 10.2 17 Este 28 Este 0 -- -- 76
2018-04-26 10:00:00 8.3 19 Este 26 Este 0 -- -- 85
2018-04-26 09:00:00 8 13 Este 22 Este 0 -- -- 92
2018-04-26 08:00:00 7.7 13 Este 22 Este 0 -- -- 92
2018-04-26 07:00:00 7.8 16 Este 22 Este 0 -- -- 93
2018-04-26 06:00:00 8.1 11 Nordeste 23 Nordeste 0 -- -- 94
2018-04-26 05:00:00 8.6 14 Este 22 Nordeste 0 -- -- 94
2018-04-26 04:00:00 8.7 11 Nordeste 21 Nordeste 0 -- -- 91
2018-04-26 03:00:00 9.3 10 Nordeste 18 Nordeste 0 -- -- 93
2018-04-26 02:00:00 9.6 9 Este 17 Este 0 -- -- 94
2018-04-26 01:00:00 9.7 13 Este 18 Este 0 -- -- 94
2018-04-26 00:00:00 9.8 12 Este 20 Este 0 -- -- 95
2018-04-25 23:00:00 9.9 13 Este 21 Sudeste 0 -- -- 94
2018-04-25 22:00:00 10.3 12 Este 21 Este 0 -- -- 92
2018-04-25 21:00:00 10.5 12 Este 23 Este 0 -- -- 91
2018-04-25 20:00:00 10.6 17 Nordeste 28 Este 0 -- -- 93
2018-04-25 19:00:00 10.8 20 Nordeste 32 Nordeste 0 -- -- 92
2018-04-25 18:00:00 11.4 22 Este 33 Este 0 -- -- 91
2018-04-25 17:00:00 12.3 22 Este 30 Este 0 -- -- 91
2018-04-25 16:00:00 12.9 20 Este 26 Este 0 -- -- 92
2018-04-25 15:00:00 13.6 14 Este 20 Este 0 -- -- 90
2018-04-25 14:00:00 13.8 9 Nordeste 15 Este 0 -- -- 90
2018-04-25 13:00:00 13.5 10 Nordeste 14 Nordeste 0 -- -- 91
2018-04-25 12:00:00 13.5 9 Nordeste 17 Este 0 -- -- 91
2018-04-25 11:00:00 12.7 14 Este 17 Este 0 -- -- 94
2018-04-25 10:00:00 12.1 12 Este 18 Este 0 -- -- 98
2018-04-25 09:00:00 11.9 12 Este 19 Este 0 -- -- 98
2018-04-25 08:00:00 11.9 10 Este 18 Este 0 -- -- 99
2018-04-25 07:00:00 12 10 Este 14 Este 0 -- -- 99
2018-04-25 06:00:00 11.8 9 Este 18 Este 0 -- -- 100
2018-04-25 05:00:00 11.6 10 Este 22 Este 0 -- -- 100
2018-04-25 04:00:00 10.3 0 Calma 0 Calma 0 -- -- 96
2018-04-25 03:00:00 10.7 0 Calma 0 Calma 0 -- -- 94
2018-04-25 02:00:00 11.3 0 Calma 6 Nordeste 0 -- -- 91
2018-04-25 01:00:00 13.1 9 Este 15 Este 0 -- -- 91
2018-04-25 00:00:00 12.9 3 Este 8 Nordeste 0 -- -- 80
2018-04-24 23:00:00 15 3 Norte 24 Sudeste 0 -- -- 69
2018-04-24 22:00:00 16.6 16 Sudeste 26 Sudeste 0 -- -- 65
2018-04-24 21:00:00 17.5 15 Sudeste 25 Sudeste 0 -- -- 68
2018-04-24 20:00:00 19.9 16 Sudeste 24 Sudeste 0 -- -- 65
2018-04-24 19:00:00 21.1 18 Sudeste 28 Este 0 -- -- 62
2018-04-24 18:00:00 21.7 17 Sudeste 28 Este 0 -- -- 65
2018-04-24 17:00:00 21.7 16 Sudeste 25 Sudeste 0 -- -- 67
2018-04-24 16:00:00 21 15 Sudeste 24 Sudeste 0 -- -- 66
2018-04-24 15:00:00 20 14 Este 26 Este 0 -- -- 71
2018-04-24 14:00:00 18.5 8 Sudeste 16 Este 0 -- -- 78
2018-04-24 13:00:00 16.4 6 Este 14 Este 0 -- -- 84
2018-04-24 12:00:00 14.3 3 Sudeste 14 Este 0 -- -- 91
2018-04-24 11:00:00 13.1 7 Este 14 Este 0 -- -- 96
2018-04-24 10:00:00 12.3 4 Sudeste 9 Sudeste 0 -- -- 97
2018-04-24 09:00:00 11.3 0 Calma 5 Este 0 -- -- 100
2018-04-24 08:00:00 10.6 0 Calma 9 Norte 0 -- -- 100
2018-04-24 07:00:00 10.6 5 Nordeste 8 Nordeste 0 -- -- 100
2018-04-24 06:00:00 10.8 3 Sudeste 8 Este 0 -- -- 100
2018-04-24 05:00:00 10.8 0 Calma 9 Sur 0 -- -- 100
2018-04-24 04:00:00 9.9 5 Sur 14 Sur 0 -- -- 100
2018-04-24 03:00:00 9.2 4 Sur 9 Sur 0 -- -- 100
2018-04-24 02:00:00 9.1 0 Calma 9 Este 0 -- -- 98
2018-04-24 01:00:00 10.7 4 Sudeste 9 Sudeste 0 -- -- 96
2018-04-24 00:00:00 12.2 6 Este 17 Este 0 -- -- 96
2018-04-23 23:00:00 13.3 12 Este 20 Este 0 -- -- 95
2018-04-23 22:00:00 13.9 7 Este 13 Este 0 -- -- 93
2018-04-23 21:00:00 15.3 5 Nordeste 19 Este 0 -- -- 84
2018-04-23 20:00:00 18.1 15 Este 27 Este 0 -- -- 75
2018-04-23 19:00:00 18.9 17 Este 28 Este 0 -- -- 72
2018-04-23 18:00:00 19.4 12 Este 20 Este 0 -- -- 74
2018-04-23 17:00:00 19.1 13 Este 20 Este 0 -- -- 72
2018-04-23 16:00:00 18.6 8 Este 19 Este 0 -- -- 78
2018-04-23 15:00:00 17.6 8 Nordeste 23 Este 0 -- -- 82
2018-04-23 14:00:00 16.8 4 Este 16 Nordeste 0 -- -- 78
2018-04-23 13:00:00 14.8 6 Nordeste 13 Nordeste 0 -- -- 82
2018-04-23 12:00:00 13.4 9 Este 17 Este 0 -- -- 91
2018-04-23 11:00:00 12.3 13 Este 17 Este 0 -- -- 95
2018-04-23 10:00:00 11.2 8 Este 13 Este 0 -- -- 100
2018-04-23 09:00:00 9.7 7 Sudoeste 9 Sudoeste 0 -- -- 100
2018-04-23 08:00:00 8.2 0 Calma 4 Sudoeste 0 -- -- 100
2018-04-23 07:00:00 7.6 0 Calma 8 Noroeste 0 -- -- 100
2018-04-23 06:00:00 8.4 3 Sur 7 Sudoeste 0 -- -- 100
2018-04-23 05:00:00 7.9 0 Calma -- -- 0 -- -- 99
2018-04-23 04:00:00 8.9 0 Calma 9 Sur 0 -- -- 97
2018-04-23 03:00:00 10 5 Sur 12 Sur 0 -- -- 97
2018-04-23 02:00:00 10.2 7 Sur 13 Sur 0 -- -- 98
2018-04-23 01:00:00 10.2 0 Calma 2 Sudoeste 0 -- -- 98
2018-04-23 00:00:00 11.1 0 Calma 8 Oeste 0 -- -- 95
2018-04-22 23:00:00 12.2 2 Sudoeste 13 Este 0 -- -- 92
2018-04-22 22:00:00 13 3 Este 15 Este 0 -- -- 90
2018-04-22 21:00:00 13.1 5 Sur 20 Sudoeste 0 -- -- 87
2018-04-22 20:00:00 14.4 5 Oeste 14 Sur 3.8 -- -- 91
2018-04-22 19:00:00 16.3 15 Sur 32 Sudeste 1 -- -- 81
2018-04-22 18:00:00 19.4 15 Este 31 Este 0 -- -- 62
2018-04-22 17:00:00 21 15 Este 28 Este 0 -- -- 61
2018-04-22 16:00:00 20.9 14 Este 26 Sudeste 0 -- -- 64
2018-04-22 15:00:00 20.7 4 Nordeste 15 Sur 0 -- -- 67
2018-04-22 14:00:00 19.7 6 Nordeste 13 Nordeste 0 -- -- 67
2018-04-22 13:00:00 17.9 5 Norte 14 Norte 0 -- -- 74
2018-04-22 12:00:00 17.6 7 Sudeste 15 Sudeste 0 -- -- 73
2018-04-22 11:00:00 15.1 3 Norte 7 Norte 0 -- -- 84
2018-04-22 10:00:00 12.5 3 Noroeste 9 Sur 0 -- -- 86
2018-04-22 09:00:00 9.7 5 Sudoeste 9 Sur 0 -- -- 94
2018-04-22 08:00:00 7.5 3 Sudoeste 8 Sudoeste 0 -- -- 98
2018-04-22 07:00:00 7.3 0 Calma 9 Sudoeste 0 -- -- 95
2018-04-22 06:00:00 7.6 0 Calma 11 Sudeste 0 -- -- 96
2018-04-22 05:00:00 8.4 5 Sudoeste 10 Sur 0 -- -- 96
2018-04-22 04:00:00 8.9 2 Oeste 10 Sur 0 -- -- 96
2018-04-22 03:00:00 9.7 6 Sur 10 Sur 0 -- -- 95
2018-04-22 02:00:00 10.4 5 Sur 10 Sur 0 -- -- 94
2018-04-22 01:00:00 10.9 5 Sur 11 Sur 0 -- -- 93
2018-04-22 00:00:00 10.8 4 Sur 8 Sur 0 -- -- 94